createdAt,value
2022-11-30T00:01:39.838Z,23.27
2022-11-30T00:04:09.286Z,29.03
2022-11-30T00:06:49.022Z,27.93
2022-11-30T00:09:17.479Z,25.80
2022-11-30T00:11:45.778Z,23.43
2022-11-30T00:14:14.155Z,29.97
2022-11-30T00:16:42.672Z,22.33
2022-11-30T00:19:11.013Z,24.53
2022-11-30T00:21:39.389Z,27.23
2022-11-30T00:24:11.565Z,28.87
2022-11-30T00:26:39.914Z,25.30
2022-11-30T00:29:08.314Z,26.40
2022-11-30T00:31:36.677Z,30.83
2022-11-30T00:34:05.025Z,27.33
2022-11-30T00:36:33.447Z,24.90
2022-11-30T00:39:01.816Z,23.73
2022-11-30T00:41:31.517Z,26.60
2022-11-30T00:43:59.838Z,26.30
2022-11-30T00:46:28.203Z,23.90
2022-11-30T00:48:56.556Z,27.93
2022-11-30T00:51:25.017Z,28.50
2022-11-30T00:53:53.371Z,26.10
2022-11-30T00:56:22.995Z,25.77
2022-11-30T00:58:54.353Z,29.67
2022-11-30T01:01:22.803Z,30.23
2022-11-30T01:03:51.078Z,25.00
2022-11-30T01:06:19.478Z,29.17
2022-11-30T01:08:48.068Z,27.80
2022-11-30T01:11:18.992Z,35.20
2022-11-30T01:13:47.424Z,32.50
2022-11-30T01:16:58.060Z,29.53
2022-11-30T01:19:51.610Z,25.93
2022-11-30T01:22:19.961Z,31.13
2022-11-30T01:24:48.386Z,28.17
2022-11-30T01:27:17.001Z,30.10
2022-11-30T01:29:45.510Z,28.97
2022-11-30T01:32:15.198Z,30.03
2022-11-30T01:34:43.692Z,30.43
2022-11-30T01:37:12.033Z,28.70
2022-11-30T01:39:40.723Z,28.30
2022-11-30T01:42:15.861Z,27.73
2022-11-30T01:44:55.609Z,30.20
2022-11-30T01:47:31.860Z,30.10
2022-11-30T01:50:07.243Z,29.50
2022-11-30T01:52:38.985Z,25.53
2022-11-30T01:55:15.912Z,27.17
2022-11-30T01:57:48.992Z,25.87
2022-11-30T02:00:17.844Z,27.10
2022-11-30T02:02:56.668Z,28.77
2022-11-30T02:05:26.825Z,26.03
2022-11-30T02:07:56.363Z,29.10
2022-11-30T02:10:29.147Z,28.57
2022-11-30T02:13:31.762Z,26.63
2022-11-30T02:16:11.626Z,27.10
2022-11-30T02:18:54.040Z,25.43
2022-11-30T02:21:30.823Z,27.37
2022-11-30T02:24:32.290Z,29.50
2022-11-30T02:27:12.284Z,32.20
2022-11-30T02:29:44.941Z,29.13
2022-11-30T02:32:19.317Z,27.47
2022-11-30T02:34:49.606Z,29.33
2022-11-30T02:37:19.334Z,28.97
2022-11-30T02:39:47.681Z,28.53
2022-11-30T02:42:16.589Z,33.23
2022-11-30T02:44:49.458Z,31.03
2022-11-30T02:47:24.733Z,28.33
2022-11-30T02:49:59.882Z,34.20
2022-11-30T02:52:30.393Z,27.37
2022-11-30T02:55:02.171Z,28.10
2022-11-30T02:57:30.746Z,28.30
2022-11-30T03:00:03.277Z,35.23
2022-11-30T03:02:31.705Z,29.47
2022-11-30T03:05:00.142Z,38.43
2022-11-30T03:07:28.534Z,30.67
2022-11-30T03:09:57.031Z,32.37
2022-11-30T03:12:25.397Z,29.87
2022-11-30T03:14:54.135Z,31.30
2022-11-30T03:17:23.844Z,33.23
2022-11-30T03:19:52.119Z,31.20
2022-11-30T03:22:20.446Z,33.80
2022-11-30T03:24:52.398Z,32.43
2022-11-30T03:27:20.753Z,33.47
2022-11-30T03:29:49.029Z,30.97
2022-11-30T03:32:17.335Z,31.30
2022-11-30T03:34:47.143Z,38.07
2022-11-30T03:37:15.600Z,36.60
2022-11-30T03:39:44.581Z,32.00
2022-11-30T03:42:12.921Z,27.10
2022-11-30T03:44:41.251Z,31.80
2022-11-30T03:47:09.545Z,33.17
2022-11-30T03:49:37.875Z,35.03
2022-11-30T03:52:07.670Z,36.83
2022-11-30T03:54:35.989Z,38.00
2022-11-30T03:57:04.590Z,35.30
2022-11-30T03:59:32.869Z,34.53
2022-11-30T04:02:01.458Z,36.00
2022-11-30T04:04:29.770Z,33.20
2022-11-30T04:06:58.124Z,31.13
2022-11-30T04:09:27.886Z,34.93
2022-11-30T04:11:56.234Z,38.93
2022-11-30T04:14:24.535Z,31.90
2022-11-30T04:16:52.865Z,34.53
2022-11-30T04:19:21.172Z,32.90
2022-11-30T04:21:49.463Z,32.20
2022-11-30T04:24:17.830Z,36.33
2022-11-30T04:26:48.137Z,29.20
2022-11-30T04:29:16.482Z,32.17
2022-11-30T04:31:44.948Z,35.53
2022-11-30T04:34:13.601Z,35.10
2022-11-30T04:36:41.968Z,33.67
2022-11-30T04:39:10.261Z,35.30
2022-11-30T04:41:38.620Z,39.67
2022-11-30T04:44:08.545Z,32.27
2022-11-30T04:46:37.803Z,33.23
2022-11-30T04:49:06.213Z,37.67
2022-11-30T04:51:34.668Z,35.40
2022-11-30T04:54:03.118Z,31.57
2022-11-30T04:56:35.628Z,38.80
2022-11-30T04:59:04.312Z,40.47
2022-11-30T05:01:34.094Z,49.20
2022-11-30T05:04:02.616Z,62.43
2022-11-30T05:06:31.082Z,41.13
2022-11-30T05:08:59.603Z,42.70
2022-11-30T05:11:28.160Z,41.57
2022-11-30T05:13:56.564Z,40.50
2022-11-30T05:16:25.017Z,35.60
2022-11-30T05:18:54.730Z,33.77
2022-11-30T05:21:23.094Z,34.73
2022-11-30T05:23:52.343Z,29.40
2022-11-30T05:26:20.661Z,32.50
2022-11-30T05:28:49.205Z,33.40
2022-11-30T05:31:17.889Z,35.87
2022-11-30T05:33:51.468Z,35.10
2022-11-30T05:36:21.821Z,31.47
2022-11-30T05:38:50.344Z,31.73
2022-11-30T05:41:18.656Z,33.50
2022-11-30T05:43:47.009Z,36.80
2022-11-30T05:46:15.403Z,39.07
2022-11-30T05:48:43.797Z,35.87
2022-11-30T05:51:15.342Z,32.13
2022-11-30T05:53:45.972Z,37.50
2022-11-30T05:56:16.012Z,33.17
2022-11-30T05:58:45.022Z,35.07
2022-11-30T06:01:20.046Z,35.10
2022-11-30T06:03:48.624Z,41.87
2022-11-30T06:06:17.639Z,42.70
2022-11-30T06:08:48.652Z,37.07
2022-11-30T06:11:18.265Z,35.70
2022-11-30T06:13:46.637Z,36.83
2022-11-30T06:16:15.007Z,37.07
2022-11-30T06:18:43.349Z,36.90
2022-11-30T06:21:13.712Z,43.57
2022-11-30T06:23:42.058Z,34.90
2022-11-30T06:26:13.615Z,38.80
2022-11-30T06:28:46.572Z,36.57
2022-11-30T06:31:16.940Z,35.60
2022-11-30T06:33:45.286Z,33.97
2022-11-30T06:36:13.585Z,35.90
2022-11-30T06:38:41.931Z,38.33
2022-11-30T06:41:12.534Z,37.37
2022-11-30T06:43:41.497Z,37.03
2022-11-30T06:46:10.221Z,36.63
2022-11-30T06:48:38.662Z,35.73
2022-11-30T06:51:08.239Z,40.00
2022-11-30T06:53:37.279Z,38.87
2022-11-30T06:56:10.536Z,39.93
2022-11-30T06:58:41.190Z,37.97
2022-11-30T07:01:11.387Z,45.33
2022-11-30T07:03:40.321Z,43.03
2022-11-30T07:06:10.895Z,73.03
2022-11-30T07:08:40.505Z,64.13
2022-11-30T07:11:11.835Z,56.00
2022-11-30T07:13:41.595Z,53.83
2022-11-30T07:16:12.368Z,40.87
2022-11-30T07:18:40.790Z,38.73
2022-11-30T07:21:10.075Z,40.73
2022-11-30T07:23:57.117Z,37.03
2022-11-30T07:26:26.612Z,43.53
2022-11-30T07:28:58.445Z,39.37
2022-11-30T07:31:29.105Z,40.03
2022-11-30T07:33:58.985Z,40.73
2022-11-30T07:36:29.658Z,35.70
2022-11-30T07:38:57.999Z,49.27
2022-11-30T07:41:26.578Z,50.47
2022-11-30T07:43:56.357Z,39.20
2022-11-30T07:46:24.725Z,38.77
2022-11-30T07:48:53.288Z,38.93
2022-11-30T07:51:23.255Z,42.00
2022-11-30T07:53:51.895Z,37.50
2022-11-30T07:56:21.731Z,35.67
2022-11-30T07:58:51.607Z,38.67
2022-11-30T08:01:23.673Z,37.77
2022-11-30T08:03:52.937Z,37.00
2022-11-30T08:06:23.102Z,41.10
2022-11-30T08:09:01.917Z,33.83
2022-11-30T08:11:31.698Z,39.50
2022-11-30T08:14:00.263Z,36.63
2022-11-30T08:16:31.079Z,38.43
2022-11-30T08:18:59.850Z,36.60
2022-11-30T08:21:28.241Z,39.33
2022-11-30T08:23:57.792Z,33.13
2022-11-30T08:26:27.986Z,34.07
2022-11-30T08:28:57.302Z,32.93
2022-11-30T08:31:27.216Z,33.57
2022-11-30T08:33:58.649Z,35.57
2022-11-30T08:36:29.206Z,36.07
2022-11-30T08:38:58.997Z,36.10
2022-11-30T08:41:28.325Z,36.87
2022-11-30T08:43:56.857Z,35.20
2022-11-30T08:49:24.438Z,51.57
2022-11-30T08:54:46.358Z,41.27
2022-11-30T08:57:15.072Z,36.20
2022-11-30T08:59:43.450Z,36.87
2022-11-30T09:02:13.381Z,36.47
2022-11-30T09:04:43.239Z,38.60
2022-11-30T09:07:11.625Z,39.23
2022-11-30T09:09:40.376Z,39.93
2022-11-30T09:12:09.335Z,36.03
2022-11-30T09:14:37.985Z,37.20
2022-11-30T09:17:06.365Z,41.63
2022-11-30T09:19:34.822Z,42.70
2022-11-30T09:22:05.197Z,37.37
2022-11-30T09:24:33.513Z,45.40
2022-11-30T09:27:02.009Z,46.20
2022-11-30T09:29:30.647Z,38.37
2022-11-30T09:31:58.950Z,40.70
2022-11-30T09:34:27.338Z,43.37
2022-11-30T09:36:55.702Z,50.37
2022-11-30T09:39:25.441Z,39.60
2022-11-30T09:42:23.443Z,42.27
2022-11-30T09:45:00.210Z,40.47
2022-11-30T09:47:50.447Z,48.83
2022-11-30T09:50:22.637Z,40.70
2022-11-30T09:52:54.229Z,40.23
2022-11-30T09:55:30.567Z,40.47
2022-11-30T09:58:03.152Z,39.00
2022-11-30T10:00:31.989Z,44.23
2022-11-30T10:03:04.365Z,50.73
2022-11-30T10:05:45.161Z,43.40
2022-11-30T10:08:29.370Z,41.70
2022-11-30T10:11:17.355Z,40.57
2022-11-30T10:14:02.699Z,38.73
2022-11-30T10:16:43.357Z,40.97
2022-11-30T10:19:25.925Z,45.87
2022-11-30T10:22:09.078Z,39.30
2022-11-30T10:24:56.138Z,38.07
2022-11-30T10:27:40.033Z,44.67
2022-11-30T10:30:15.130Z,40.53
2022-11-30T10:32:46.014Z,36.13
2022-11-30T10:35:24.390Z,43.93
2022-11-30T10:37:54.420Z,42.20
2022-11-30T10:40:34.115Z,41.77
2022-11-30T10:43:19.930Z,40.30
2022-11-30T10:45:50.160Z,40.40
2022-11-30T10:48:25.686Z,40.13
2022-11-30T10:50:54.536Z,38.83
2022-11-30T10:53:23.172Z,38.27
2022-11-30T10:56:00.123Z,39.03
2022-11-30T10:58:34.707Z,38.67
2022-11-30T11:01:06.473Z,42.63
2022-11-30T11:03:35.249Z,38.13
2022-11-30T11:06:07.000Z,39.77
2022-11-30T11:08:35.565Z,56.80
2022-11-30T11:11:05.086Z,40.43
2022-11-30T11:13:43.015Z,36.63
2022-11-30T11:16:13.078Z,35.33
2022-11-30T11:18:53.999Z,44.20
2022-11-30T11:21:24.569Z,37.33
2022-11-30T11:23:55.705Z,44.07
2022-11-30T11:26:26.306Z,37.87
2022-11-30T11:28:59.430Z,30.77
2022-11-30T11:31:36.981Z,34.07
2022-11-30T11:34:21.023Z,37.77
2022-11-30T11:37:06.419Z,31.00
2022-11-30T11:39:34.881Z,36.37
2022-11-30T11:42:03.652Z,38.23
2022-11-30T11:44:33.744Z,37.63
2022-11-30T11:47:04.410Z,35.23
2022-11-30T11:49:35.582Z,35.07
2022-11-30T11:52:06.216Z,29.17
2022-11-30T11:54:40.429Z,33.90
2022-11-30T11:57:10.622Z,30.97
2022-11-30T11:59:47.841Z,33.00
2022-11-30T12:02:28.692Z,31.13
2022-11-30T12:05:00.233Z,30.77
2022-11-30T12:07:35.057Z,31.67
2022-11-30T12:10:51.395Z,35.17
2022-11-30T12:13:17.633Z,30.10
2022-11-30T12:16:00.214Z,31.97
2022-11-30T12:18:35.143Z,29.47
2022-11-30T12:21:11.734Z,30.77
2022-11-30T12:23:59.361Z,27.77
2022-11-30T12:26:38.302Z,31.23
2022-11-30T12:29:25.227Z,31.97
2022-11-30T12:32:21.558Z,29.87
2022-11-30T12:35:04.057Z,27.40
2022-11-30T12:37:47.540Z,27.93
2022-11-30T12:40:28.975Z,29.87
2022-11-30T12:43:05.101Z,27.63
2022-11-30T12:45:38.587Z,27.97
2022-11-30T12:48:19.806Z,26.80
2022-11-30T12:51:00.433Z,26.17
2022-11-30T12:53:34.613Z,27.17
2022-11-30T12:56:15.120Z,26.07
2022-11-30T12:58:52.713Z,29.80
2022-11-30T13:01:39.127Z,30.37
2022-11-30T13:04:19.281Z,32.50
2022-11-30T13:06:52.581Z,28.93
2022-11-30T13:09:29.337Z,31.80
2022-11-30T13:12:00.839Z,32.77
2022-11-30T13:14:31.562Z,28.53
2022-11-30T13:17:04.033Z,23.20
2022-11-30T13:19:48.789Z,24.60
2022-11-30T13:22:24.857Z,31.40
2022-11-30T13:25:01.677Z,28.37
2022-11-30T13:27:36.370Z,29.10
2022-11-30T13:30:20.583Z,28.87
2022-11-30T13:32:58.246Z,29.17
2022-11-30T13:35:53.437Z,29.93
2022-11-30T13:38:38.676Z,27.93
2022-11-30T13:41:09.415Z,31.90
2022-11-30T13:43:44.951Z,31.03
2022-11-30T13:46:16.756Z,30.23
2022-11-30T13:48:46.037Z,31.33
2022-11-30T13:51:35.909Z,30.57
2022-11-30T13:54:40.335Z,28.27
2022-11-30T13:57:59.384Z,28.67
2022-11-30T14:01:02.151Z,32.87
2022-11-30T14:03:31.735Z,25.67
2022-11-30T14:06:00.808Z,26.20
2022-11-30T14:08:36.380Z,26.27
2022-11-30T14:11:42.930Z,31.13
2022-11-30T14:14:45.672Z,25.93
2022-11-30T14:17:27.478Z,27.00
2022-11-30T14:20:00.723Z,27.33
2022-11-30T14:22:30.774Z,27.97
2022-11-30T14:25:02.497Z,22.77
2022-11-30T14:27:31.565Z,27.17
2022-11-30T14:30:04.317Z,29.07
2022-11-30T14:32:38.942Z,26.77
2022-11-30T14:35:12.701Z,24.23
2022-11-30T14:37:47.056Z,29.50
2022-11-30T14:40:19.896Z,27.43
2022-11-30T14:42:50.979Z,27.20
2022-11-30T14:45:21.655Z,31.27
2022-11-30T14:47:54.001Z,24.40
2022-11-30T14:50:25.049Z,27.50
2022-11-30T14:53:04.060Z,26.53
2022-11-30T14:55:40.688Z,24.87
2022-11-30T14:58:21.625Z,27.50
2022-11-30T15:00:51.109Z,26.27
2022-11-30T15:03:25.627Z,25.73
2022-11-30T15:05:57.162Z,21.63
2022-11-30T15:08:36.688Z,21.80
2022-11-30T15:11:10.515Z,28.03
2022-11-30T15:13:40.500Z,25.67
2022-11-30T15:16:16.873Z,23.87
2022-11-30T15:18:45.283Z,26.43
2022-11-30T15:21:18.439Z,24.77
2022-11-30T15:23:51.155Z,29.87
2022-11-30T15:26:25.645Z,26.10
2022-11-30T15:28:59.263Z,24.87
2022-11-30T15:31:33.833Z,31.50
2022-11-30T15:34:02.696Z,29.20
2022-11-30T15:36:36.530Z,32.33
2022-11-30T15:39:08.073Z,35.07
2022-11-30T15:41:37.997Z,39.20
2022-11-30T15:44:06.644Z,42.23
2022-11-30T15:46:42.743Z,36.60
2022-11-30T15:49:18.801Z,34.20
2022-11-30T15:51:54.510Z,30.63
2022-11-30T15:54:44.120Z,35.07
2022-11-30T15:57:14.281Z,33.23
2022-11-30T15:59:42.849Z,38.10
2022-11-30T16:02:29.491Z,37.27
2022-11-30T16:05:24.447Z,41.47
2022-11-30T16:07:55.682Z,35.67
2022-11-30T16:10:26.904Z,34.43
2022-11-30T16:12:57.310Z,39.20
2022-11-30T16:15:27.635Z,39.20
2022-11-30T16:17:59.675Z,35.30
2022-11-30T16:20:28.249Z,36.00
2022-11-30T16:23:01.107Z,37.10
2022-11-30T16:25:32.475Z,34.47
2022-11-30T16:28:02.852Z,37.83
2022-11-30T16:30:32.190Z,37.53
2022-11-30T16:33:00.549Z,34.43
2022-11-30T16:35:36.661Z,36.23
2022-11-30T16:38:05.044Z,34.47
2022-11-30T16:40:38.491Z,35.73
2022-11-30T16:43:11.443Z,38.87
2022-11-30T16:45:41.179Z,36.10
2022-11-30T16:48:09.553Z,41.17
2022-11-30T16:50:38.171Z,37.70
2022-11-30T16:53:11.325Z,44.20
2022-11-30T16:55:40.181Z,68.63
2022-11-30T16:58:09.892Z,32.40
2022-11-30T17:00:39.988Z,35.80
2022-11-30T17:03:16.359Z,33.80
2022-11-30T17:05:44.688Z,36.03
2022-11-30T17:08:13.020Z,34.80
2022-11-30T17:10:42.293Z,32.90
2022-11-30T17:13:14.684Z,36.67
2022-11-30T17:15:43.031Z,33.17
2022-11-30T17:18:11.677Z,39.53
2022-11-30T17:20:40.316Z,36.20
2022-11-30T17:23:09.069Z,33.47
2022-11-30T17:25:37.428Z,38.73
2022-11-30T17:28:06.091Z,34.17
2022-11-30T17:30:35.877Z,35.77
2022-11-30T17:33:04.339Z,34.03
2022-11-30T17:35:32.697Z,35.60
2022-11-30T17:38:01.179Z,31.93
2022-11-30T17:40:29.496Z,32.80
2022-11-30T17:42:57.944Z,29.60
2022-11-30T17:45:26.261Z,35.07
2022-11-30T17:47:55.964Z,36.57
2022-11-30T17:50:24.977Z,36.77
2022-11-30T17:52:53.540Z,38.10
2022-11-30T17:55:21.831Z,36.97
2022-11-30T17:57:50.232Z,36.77
2022-11-30T18:00:20.124Z,35.10
2022-11-30T18:02:51.138Z,34.67
2022-11-30T18:05:21.867Z,40.20
2022-11-30T18:07:50.991Z,38.93
2022-11-30T18:10:19.549Z,38.93
2022-11-30T18:12:47.892Z,32.23
2022-11-30T18:15:16.295Z,39.93
2022-11-30T18:17:44.637Z,33.53
2022-11-30T18:20:13.864Z,32.40
2022-11-30T18:22:43.756Z,37.30
2022-11-30T18:25:15.523Z,40.67
2022-11-30T18:27:44.477Z,34.37
2022-11-30T18:30:13.639Z,34.67
2022-11-30T18:32:42.008Z,37.60
2022-11-30T18:35:11.028Z,38.60
2022-11-30T18:37:39.447Z,33.30
2022-11-30T18:40:10.885Z,31.93
2022-11-30T18:42:39.264Z,35.50
2022-11-30T18:45:08.611Z,35.23
2022-11-30T18:47:37.067Z,34.47
2022-11-30T18:50:06.379Z,30.30
2022-11-30T18:52:37.892Z,33.87
2022-11-30T18:55:06.844Z,34.47
2022-11-30T18:57:36.875Z,31.30
2022-11-30T19:00:06.455Z,35.97
2022-11-30T19:02:36.012Z,32.30
2022-11-30T19:05:08.977Z,34.87
2022-11-30T19:07:41.567Z,35.30
2022-11-30T19:10:10.700Z,43.07
2022-11-30T19:12:40.848Z,40.70
2022-11-30T19:15:09.786Z,60.10
2022-11-30T19:17:38.073Z,38.30
2022-11-30T19:20:07.851Z,38.87
2022-11-30T19:22:36.182Z,38.43
2022-11-30T19:25:04.883Z,35.33
2022-11-30T19:27:36.823Z,40.97
2022-11-30T19:30:09.012Z,36.80
2022-11-30T19:32:37.388Z,35.97
2022-11-30T19:35:06.570Z,40.07
2022-11-30T19:37:35.051Z,39.27
2022-11-30T19:40:03.507Z,37.50
2022-11-30T19:42:32.080Z,34.43
2022-11-30T19:45:00.487Z,39.30
2022-11-30T19:47:30.189Z,36.13
2022-11-30T19:49:58.738Z,35.90
2022-11-30T19:52:27.079Z,35.67
2022-11-30T19:54:55.608Z,39.23
2022-11-30T19:57:24.148Z,34.30
2022-11-30T19:59:52.541Z,36.43
2022-11-30T20:02:20.979Z,35.60
2022-11-30T20:04:50.962Z,34.73
2022-11-30T20:07:19.448Z,36.57
2022-11-30T20:09:47.898Z,38.53
2022-11-30T20:12:16.224Z,47.90
2022-11-30T20:14:44.682Z,38.17
2022-11-30T20:17:13.109Z,31.80
2022-11-30T20:19:41.452Z,30.63
2022-11-30T20:22:11.548Z,36.23
2022-11-30T20:24:40.095Z,34.30
2022-11-30T20:27:08.515Z,27.43
2022-11-30T20:29:37.396Z,30.00
2022-11-30T20:32:07.315Z,34.67
2022-11-30T20:34:40.989Z,36.13
2022-11-30T20:37:13.513Z,35.40
2022-11-30T20:39:45.974Z,34.17
2022-11-30T20:42:14.802Z,38.03
2022-11-30T20:44:43.136Z,38.23
2022-11-30T20:47:12.097Z,38.17
2022-11-30T20:49:40.455Z,38.00
2022-11-30T20:52:08.817Z,29.80
2022-11-30T20:54:38.472Z,34.50
2022-11-30T20:57:06.826Z,33.87
2022-11-30T20:59:35.181Z,31.90
2022-11-30T21:02:04.495Z,34.93
2022-11-30T21:04:32.942Z,33.17
2022-11-30T21:07:01.262Z,35.10
2022-11-30T21:09:29.615Z,31.87
2022-11-30T21:11:59.389Z,33.57
2022-11-30T21:14:27.922Z,37.20
2022-11-30T21:16:56.412Z,33.07
2022-11-30T21:19:24.903Z,36.33
2022-11-30T21:21:55.237Z,34.40
2022-11-30T21:24:23.587Z,36.67
2022-11-30T21:26:51.948Z,33.17
2022-11-30T21:29:21.656Z,40.10
2022-11-30T21:31:50.087Z,38.60
2022-11-30T21:34:18.467Z,35.93
2022-11-30T21:36:46.908Z,37.50
2022-11-30T21:39:16.252Z,34.80
2022-11-30T21:41:44.784Z,42.37
2022-11-30T21:44:16.047Z,37.43
2022-11-30T21:46:47.468Z,39.37
2022-11-30T21:49:16.809Z,35.27
2022-11-30T21:51:45.210Z,35.00
2022-11-30T21:54:14.549Z,35.40
2022-11-30T21:56:44.766Z,36.20
2022-11-30T21:59:15.428Z,37.30
2022-11-30T22:01:46.281Z,35.47
2022-11-30T22:04:15.711Z,37.97
2022-11-30T22:06:44.859Z,33.03
2022-11-30T22:09:15.945Z,37.13
2022-11-30T22:11:46.043Z,38.50
2022-11-30T22:14:16.989Z,37.67
2022-11-30T22:16:47.243Z,35.10
2022-11-30T22:19:16.573Z,35.53
2022-11-30T22:21:49.947Z,34.43
2022-11-30T22:24:19.031Z,34.80
2022-11-30T22:26:49.057Z,37.37
2022-11-30T22:29:19.974Z,35.43
2022-11-30T22:31:52.139Z,33.43
2022-11-30T22:34:20.876Z,33.80
2022-11-30T22:36:49.666Z,37.67
2022-11-30T22:39:19.826Z,38.00
2022-11-30T22:41:55.188Z,34.70
2022-11-30T22:44:25.645Z,34.63
2022-11-30T22:46:55.529Z,38.73
2022-11-30T22:49:24.367Z,41.00
2022-11-30T22:51:52.739Z,39.13
2022-11-30T22:54:21.050Z,36.60
2022-11-30T22:56:49.356Z,37.40
2022-11-30T22:59:17.781Z,36.00
2022-11-30T23:01:47.713Z,39.60
2022-11-30T23:04:19.047Z,36.47
2022-11-30T23:06:48.750Z,40.53
2022-11-30T23:09:19.290Z,41.33
2022-11-30T23:11:47.944Z,36.33
2022-11-30T23:14:16.590Z,38.80
2022-11-30T23:16:45.794Z,38.20
2022-11-30T23:19:14.398Z,40.17
2022-11-30T23:21:45.881Z,38.00
2022-11-30T23:24:16.805Z,36.40
2022-11-30T23:26:45.519Z,40.27
2022-11-30T23:29:15.738Z,45.03
2022-11-30T23:31:45.653Z,45.23
2022-11-30T23:34:16.053Z,41.30
2022-11-30T23:36:46.847Z,42.93
2022-11-30T23:39:17.305Z,41.00
2022-11-30T23:41:45.894Z,41.37
2022-11-30T23:44:14.862Z,41.50
2022-11-30T23:46:43.395Z,42.67
2022-11-30T23:49:14.037Z,44.03
2022-11-30T23:51:42.488Z,40.63
2022-11-30T23:54:12.114Z,39.97
2022-11-30T23:56:40.474Z,40.37
2022-11-30T23:59:08.868Z,42.17
